sensor_id;sensor_type;location;lat;lon;timestamp;P1;durP1;ratioP1;P2;durP2;ratioP2
19891;SDS011;10108;50.142;8.724;2023-07-13T00:00:37;7.80;;;4.15;;
19891;SDS011;10108;50.142;8.724;2023-07-13T00:03:04;6.55;;;4.00;;
19891;SDS011;10108;50.142;8.724;2023-07-13T00:05:30;7.90;;;3.85;;
19891;SDS011;10108;50.142;8.724;2023-07-13T00:07:57;5.88;;;4.20;;
19891;SDS011;10108;50.142;8.724;2023-07-13T00:10:23;7.30;;;4.20;;
19891;SDS011;10108;50.142;8.724;2023-07-13T00:12:49;6.13;;;4.18;;
19891;SDS011;10108;50.142;8.724;2023-07-13T00:15:17;8.50;;;4.20;;
19891;SDS011;10108;50.142;8.724;2023-07-13T00:17:57;7.10;;;3.78;;
19891;SDS011;10108;50.142;8.724;2023-07-13T00:20:23;5.80;;;3.85;;
19891;SDS011;10108;50.142;8.724;2023-07-13T00:22:51;6.07;;;3.78;;
19891;SDS011;10108;50.142;8.724;2023-07-13T00:25:22;5.93;;;3.90;;
19891;SDS011;10108;50.142;8.724;2023-07-13T00:27:51;7.82;;;4.00;;
19891;SDS011;10108;50.142;8.724;2023-07-13T00:30:17;9.32;;;3.95;;
19891;SDS011;10108;50.142;8.724;2023-07-13T00:32:43;10.27;;;4.03;;
19891;SDS011;10108;50.142;8.724;2023-07-13T00:35:09;7.30;;;4.00;;
19891;SDS011;10108;50.142;8.724;2023-07-13T00:37:38;8.80;;;4.07;;
19891;SDS011;10108;50.142;8.724;2023-07-13T00:40:04;6.88;;;3.92;;
19891;SDS011;10108;50.142;8.724;2023-07-13T00:42:31;9.77;;;4.10;;
19891;SDS011;10108;50.142;8.724;2023-07-13T00:45:05;6.88;;;3.85;;
19891;SDS011;10108;50.142;8.724;2023-07-13T00:47:52;5.20;;;3.83;;
19891;SDS011;10108;50.142;8.724;2023-07-13T00:50:19;9.15;;;4.15;;
19891;SDS011;10108;50.142;8.724;2023-07-13T00:52:48;10.05;;;4.00;;
19891;SDS011;10108;50.142;8.724;2023-07-13T00:55:19;8.07;;;3.90;;
19891;SDS011;10108;50.142;8.724;2023-07-13T00:57:48;6.88;;;3.80;;
19891;SDS011;10108;50.142;8.724;2023-07-13T01:00:14;5.50;;;3.72;;
19891;SDS011;10108;50.142;8.724;2023-07-13T01:02:42;6.82;;;3.85;;
19891;SDS011;10108;50.142;8.724;2023-07-13T01:05:16;7.13;;;4.03;;
19891;SDS011;10108;50.142;8.724;2023-07-13T01:07:44;6.38;;;3.92;;
19891;SDS011;10108;50.142;8.724;2023-07-13T01:10:11;8.10;;;3.95;;
19891;SDS011;10108;50.142;8.724;2023-07-13T01:12:39;7.78;;;3.90;;
19891;SDS011;10108;50.142;8.724;2023-07-13T01:15:32;7.47;;;4.15;;
19891;SDS011;10108;50.142;8.724;2023-07-13T01:18:16;6.63;;;3.97;;
19891;SDS011;10108;50.142;8.724;2023-07-13T01:20:50;7.50;;;4.00;;
19891;SDS011;10108;50.142;8.724;2023-07-13T01:23:19;6.15;;;3.92;;
19891;SDS011;10108;50.142;8.724;2023-07-13T01:25:48;8.73;;;4.00;;
19891;SDS011;10108;50.142;8.724;2023-07-13T01:28:14;9.27;;;4.30;;
19891;SDS011;10108;50.142;8.724;2023-07-13T01:30:42;8.20;;;3.90;;
19891;SDS011;10108;50.142;8.724;2023-07-13T01:33:14;8.02;;;4.28;;
19891;SDS011;10108;50.142;8.724;2023-07-13T01:35:43;8.40;;;4.20;;
19891;SDS011;10108;50.142;8.724;2023-07-13T01:38:10;7.93;;;4.10;;
19891;SDS011;10108;50.142;8.724;2023-07-13T01:40:37;7.25;;;4.10;;
19891;SDS011;10108;50.142;8.724;2023-07-13T01:43:03;8.20;;;4.10;;
19891;SDS011;10108;50.142;8.724;2023-07-13T01:45:30;7.25;;;3.72;;
19891;SDS011;10108;50.142;8.724;2023-07-13T01:47:56;8.45;;;3.80;;
19891;SDS011;10108;50.142;8.724;2023-07-13T01:50:23;9.23;;;4.00;;
19891;SDS011;10108;50.142;8.724;2023-07-13T01:52:50;8.93;;;4.38;;
19891;SDS011;10108;50.142;8.724;2023-07-13T01:55:17;9.45;;;3.88;;
19891;SDS011;10108;50.142;8.724;2023-07-13T01:57:43;7.15;;;3.80;;
19891;SDS011;10108;50.142;8.724;2023-07-13T02:00:09;7.90;;;3.88;;
19891;SDS011;10108;50.142;8.724;2023-07-13T02:02:42;11.18;;;4.30;;
19891;SDS011;10108;50.142;8.724;2023-07-13T02:05:10;5.45;;;3.80;;
19891;SDS011;10108;50.142;8.724;2023-07-13T02:07:37;5.35;;;3.88;;
19891;SDS011;10108;50.142;8.724;2023-07-13T02:10:04;11.80;;;3.90;;
19891;SDS011;10108;50.142;8.724;2023-07-13T02:12:32;9.50;;;3.90;;
19891;SDS011;10108;50.142;8.724;2023-07-13T02:14:58;6.53;;;3.80;;
19891;SDS011;10108;50.142;8.724;2023-07-13T02:17:25;8.35;;;3.70;;
19891;SDS011;10108;50.142;8.724;2023-07-13T02:19:52;6.78;;;3.80;;
19891;SDS011;10108;50.142;8.724;2023-07-13T02:22:18;6.72;;;3.85;;
19891;SDS011;10108;50.142;8.724;2023-07-13T02:24:44;7.55;;;4.05;;
19891;SDS011;10108;50.142;8.724;2023-07-13T02:27:10;9.13;;;4.00;;
19891;SDS011;10108;50.142;8.724;2023-07-13T02:29:36;7.07;;;4.00;;
19891;SDS011;10108;50.142;8.724;2023-07-13T02:32:03;9.00;;;4.03;;
19891;SDS011;10108;50.142;8.724;2023-07-13T02:34:29;8.48;;;4.00;;
19891;SDS011;10108;50.142;8.724;2023-07-13T02:36:55;12.02;;;4.20;;
19891;SDS011;10108;50.142;8.724;2023-07-13T02:39:22;8.95;;;3.80;;
19891;SDS011;10108;50.142;8.724;2023-07-13T02:41:48;6.15;;;3.95;;
19891;SDS011;10108;50.142;8.724;2023-07-13T02:44:14;6.85;;;3.85;;
19891;SDS011;10108;50.142;8.724;2023-07-13T02:46:40;7.53;;;4.00;;
19891;SDS011;10108;50.142;8.724;2023-07-13T02:49:07;7.78;;;3.90;;
19891;SDS011;10108;50.142;8.724;2023-07-13T02:51:33;8.82;;;4.10;;
19891;SDS011;10108;50.142;8.724;2023-07-13T02:54:01;8.27;;;3.95;;
19891;SDS011;10108;50.142;8.724;2023-07-13T02:56:29;8.27;;;3.97;;
19891;SDS011;10108;50.142;8.724;2023-07-13T02:58:56;6.95;;;4.15;;
19891;SDS011;10108;50.142;8.724;2023-07-13T03:01:23;9.73;;;4.07;;
19891;SDS011;10108;50.142;8.724;2023-07-13T03:03:50;4.70;;;3.80;;
19891;SDS011;10108;50.142;8.724;2023-07-13T03:06:18;8.48;;;4.22;;
19891;SDS011;10108;50.142;8.724;2023-07-13T03:08:49;4.50;;;3.60;;
19891;SDS011;10108;50.142;8.724;2023-07-13T03:11:19;7.38;;;3.92;;
19891;SDS011;10108;50.142;8.724;2023-07-13T03:14:09;10.10;;;4.10;;
19891;SDS011;10108;50.142;8.724;2023-07-13T03:16:37;7.55;;;3.95;;
19891;SDS011;10108;50.142;8.724;2023-07-13T03:19:03;6.22;;;3.90;;
19891;SDS011;10108;50.142;8.724;2023-07-13T03:21:29;7.25;;;4.00;;
19891;SDS011;10108;50.142;8.724;2023-07-13T03:23:56;7.38;;;4.10;;
19891;SDS011;10108;50.142;8.724;2023-07-13T03:26:22;12.77;;;4.13;;
19891;SDS011;10108;50.142;8.724;2023-07-13T03:28:48;7.85;;;3.92;;
19891;SDS011;10108;50.142;8.724;2023-07-13T03:31:19;7.47;;;3.88;;
19891;SDS011;10108;50.142;8.724;2023-07-13T03:33:50;8.00;;;4.05;;
19891;SDS011;10108;50.142;8.724;2023-07-13T03:36:19;6.38;;;4.10;;
19891;SDS011;10108;50.142;8.724;2023-07-13T03:38:54;6.65;;;4.00;;
19891;SDS011;10108;50.142;8.724;2023-07-13T03:41:25;10.50;;;4.10;;
19891;SDS011;10108;50.142;8.724;2023-07-13T03:43:53;8.23;;;3.88;;
19891;SDS011;10108;50.142;8.724;2023-07-13T03:46:21;6.70;;;4.00;;
19891;SDS011;10108;50.142;8.724;2023-07-13T03:48:47;10.25;;;4.10;;
19891;SDS011;10108;50.142;8.724;2023-07-13T03:51:14;5.97;;;3.75;;
19891;SDS011;10108;50.142;8.724;2023-07-13T03:53:42;7.50;;;3.78;;
19891;SDS011;10108;50.142;8.724;2023-07-13T03:56:11;7.70;;;4.20;;
19891;SDS011;10108;50.142;8.724;2023-07-13T03:58:41;8.00;;;3.92;;
19891;SDS011;10108;50.142;8.724;2023-07-13T04:01:14;8.40;;;4.18;;
19891;SDS011;10108;50.142;8.724;2023-07-13T04:03:42;9.55;;;4.35;;
19891;SDS011;10108;50.142;8.724;2023-07-13T04:06:14;8.60;;;3.95;;
19891;SDS011;10108;50.142;8.724;2023-07-13T04:08:48;12.30;;;4.13;;
19891;SDS011;10108;50.142;8.724;2023-07-13T04:11:16;4.55;;;3.70;;
19891;SDS011;10108;50.142;8.724;2023-07-13T04:13:44;6.82;;;3.90;;
19891;SDS011;10108;50.142;8.724;2023-07-13T04:16:11;6.90;;;4.05;;
19891;SDS011;10108;50.142;8.724;2023-07-13T04:18:38;7.35;;;4.00;;
19891;SDS011;10108;50.142;8.724;2023-07-13T04:21:04;7.78;;;4.13;;
19891;SDS011;10108;50.142;8.724;2023-07-13T04:23:31;5.82;;;4.00;;
19891;SDS011;10108;50.142;8.724;2023-07-13T04:25:57;8.70;;;4.00;;
19891;SDS011;10108;50.142;8.724;2023-07-13T04:28:23;9.23;;;4.10;;
19891;SDS011;10108;50.142;8.724;2023-07-13T04:30:50;7.88;;;4.22;;
19891;SDS011;10108;50.142;8.724;2023-07-13T04:33:17;6.93;;;4.10;;
19891;SDS011;10108;50.142;8.724;2023-07-13T04:35:43;8.07;;;4.20;;
19891;SDS011;10108;50.142;8.724;2023-07-13T04:38:12;9.35;;;4.40;;
19891;SDS011;10108;50.142;8.724;2023-07-13T04:40:38;6.75;;;4.25;;
19891;SDS011;10108;50.142;8.724;2023-07-13T04:43:04;7.00;;;4.15;;
19891;SDS011;10108;50.142;8.724;2023-07-13T04:45:30;9.15;;;3.90;;
19891;SDS011;10108;50.142;8.724;2023-07-13T04:47:57;9.93;;;4.60;;
19891;SDS011;10108;50.142;8.724;2023-07-13T04:50:23;7.78;;;4.03;;
19891;SDS011;10108;50.142;8.724;2023-07-13T04:52:50;7.38;;;4.30;;
19891;SDS011;10108;50.142;8.724;2023-07-13T04:55:16;7.20;;;4.22;;
19891;SDS011;10108;50.142;8.724;2023-07-13T04:57:43;7.65;;;3.90;;
19891;SDS011;10108;50.142;8.724;2023-07-13T05:00:09;6.18;;;3.88;;
19891;SDS011;10108;50.142;8.724;2023-07-13T05:02:37;7.03;;;4.45;;
19891;SDS011;10108;50.142;8.724;2023-07-13T05:05:04;9.68;;;4.25;;
19891;SDS011;10108;50.142;8.724;2023-07-13T05:07:31;6.20;;;3.70;;
19891;SDS011;10108;50.142;8.724;2023-07-13T05:09:59;8.55;;;3.97;;
19891;SDS011;10108;50.142;8.724;2023-07-13T05:12:26;8.77;;;4.40;;
19891;SDS011;10108;50.142;8.724;2023-07-13T05:14:53;6.65;;;4.20;;
19891;SDS011;10108;50.142;8.724;2023-07-13T05:17:19;5.70;;;3.83;;
19891;SDS011;10108;50.142;8.724;2023-07-13T05:19:45;9.45;;;3.92;;
19891;SDS011;10108;50.142;8.724;2023-07-13T05:22:11;9.55;;;4.00;;
19891;SDS011;10108;50.142;8.724;2023-07-13T05:24:37;6.75;;;4.18;;
19891;SDS011;10108;50.142;8.724;2023-07-13T05:27:03;7.35;;;4.20;;
19891;SDS011;10108;50.142;8.724;2023-07-13T05:29:30;6.55;;;4.28;;
19891;SDS011;10108;50.142;8.724;2023-07-13T05:31:56;11.30;;;4.60;;
19891;SDS011;10108;50.142;8.724;2023-07-13T05:34:22;6.90;;;4.10;;
19891;SDS011;10108;50.142;8.724;2023-07-13T05:36:49;7.05;;;4.30;;
19891;SDS011;10108;50.142;8.724;2023-07-13T05:39:16;8.30;;;4.43;;
19891;SDS011;10108;50.142;8.724;2023-07-13T05:41:42;10.00;;;4.35;;
19891;SDS011;10108;50.142;8.724;2023-07-13T05:44:08;9.45;;;4.15;;
19891;SDS011;10108;50.142;8.724;2023-07-13T05:46:34;7.70;;;4.20;;
19891;SDS011;10108;50.142;8.724;2023-07-13T05:49:00;6.30;;;3.95;;
19891;SDS011;10108;50.142;8.724;2023-07-13T05:51:26;6.10;;;4.00;;
19891;SDS011;10108;50.142;8.724;2023-07-13T05:53:53;5.53;;;3.90;;
19891;SDS011;10108;50.142;8.724;2023-07-13T05:56:19;5.53;;;3.63;;
19891;SDS011;10108;50.142;8.724;2023-07-13T05:58:45;6.72;;;3.78;;
19891;SDS011;10108;50.142;8.724;2023-07-13T06:01:14;5.38;;;3.80;;
19891;SDS011;10108;50.142;8.724;2023-07-13T06:03:41;4.68;;;4.00;;
19891;SDS011;10108;50.142;8.724;2023-07-13T06:06:08;6.03;;;3.72;;
19891;SDS011;10108;50.142;8.724;2023-07-13T06:08:35;6.38;;;3.70;;
19891;SDS011;10108;50.142;8.724;2023-07-13T06:11:06;6.05;;;3.80;;
19891;SDS011;10108;50.142;8.724;2023-07-13T06:13:42;5.75;;;4.00;;
19891;SDS011;10108;50.142;8.724;2023-07-13T06:16:09;5.78;;;3.53;;
19891;SDS011;10108;50.142;8.724;2023-07-13T06:18:36;5.95;;;3.78;;
19891;SDS011;10108;50.142;8.724;2023-07-13T06:21:09;6.57;;;3.92;;
19891;SDS011;10108;50.142;8.724;2023-07-13T06:23:37;6.80;;;3.92;;
19891;SDS011;10108;50.142;8.724;2023-07-13T06:26:04;7.57;;;4.00;;
19891;SDS011;10108;50.142;8.724;2023-07-13T06:28:31;9.82;;;4.10;;
19891;SDS011;10108;50.142;8.724;2023-07-13T06:30:58;7.82;;;3.85;;
19891;SDS011;10108;50.142;8.724;2023-07-13T06:33:25;4.80;;;3.60;;
19891;SDS011;10108;50.142;8.724;2023-07-13T06:35:51;4.50;;;3.70;;
19891;SDS011;10108;50.142;8.724;2023-07-13T06:38:18;8.30;;;3.90;;
19891;SDS011;10108;50.142;8.724;2023-07-13T06:40:44;6.35;;;3.67;;
19891;SDS011;10108;50.142;8.724;2023-07-13T06:43:10;4.85;;;3.60;;
19891;SDS011;10108;50.142;8.724;2023-07-13T06:45:41;8.95;;;3.90;;
19891;SDS011;10108;50.142;8.724;2023-07-13T06:48:11;5.57;;;3.63;;
19891;SDS011;10108;50.142;8.724;2023-07-13T06:50:37;4.95;;;3.33;;
19891;SDS011;10108;50.142;8.724;2023-07-13T06:53:03;7.32;;;3.50;;
19891;SDS011;10108;50.142;8.724;2023-07-13T06:55:29;6.93;;;3.80;;
19891;SDS011;10108;50.142;8.724;2023-07-13T06:57:56;4.88;;;3.88;;
19891;SDS011;10108;50.142;8.724;2023-07-13T07:00:22;6.05;;;3.65;;
19891;SDS011;10108;50.142;8.724;2023-07-13T07:02:49;6.97;;;3.80;;
19891;SDS011;10108;50.142;8.724;2023-07-13T07:05:15;12.02;;;3.90;;
19891;SDS011;10108;50.142;8.724;2023-07-13T07:07:41;4.75;;;3.78;;
19891;SDS011;10108;50.142;8.724;2023-07-13T07:10:07;6.10;;;3.80;;
19891;SDS011;10108;50.142;8.724;2023-07-13T07:12:34;4.90;;;3.80;;
19891;SDS011;10108;50.142;8.724;2023-07-13T07:15:00;6.40;;;3.90;;
19891;SDS011;10108;50.142;8.724;2023-07-13T07:17:26;7.70;;;3.80;;
19891;SDS011;10108;50.142;8.724;2023-07-13T07:19:52;5.20;;;3.63;;
19891;SDS011;10108;50.142;8.724;2023-07-13T07:22:21;7.72;;;3.80;;
19891;SDS011;10108;50.142;8.724;2023-07-13T07:24:47;6.72;;;3.90;;
19891;SDS011;10108;50.142;8.724;2023-07-13T07:27:14;4.90;;;3.58;;
19891;SDS011;10108;50.142;8.724;2023-07-13T07:29:40;12.23;;;4.07;;
19891;SDS011;10108;50.142;8.724;2023-07-13T07:32:06;8.20;;;3.80;;
19891;SDS011;10108;50.142;8.724;2023-07-13T07:34:32;7.47;;;3.72;;
19891;SDS011;10108;50.142;8.724;2023-07-13T07:36:59;7.70;;;3.85;;
19891;SDS011;10108;50.142;8.724;2023-07-13T07:39:29;6.57;;;3.65;;
19891;SDS011;10108;50.142;8.724;2023-07-13T07:41:55;5.35;;;3.40;;
19891;SDS011;10108;50.142;8.724;2023-07-13T07:44:21;4.60;;;3.50;;
19891;SDS011;10108;50.142;8.724;2023-07-13T07:46:48;4.57;;;3.13;;
19891;SDS011;10108;50.142;8.724;2023-07-13T07:49:15;8.40;;;3.63;;
19891;SDS011;10108;50.142;8.724;2023-07-13T07:51:41;5.80;;;3.97;;
19891;SDS011;10108;50.142;8.724;2023-07-13T07:54:07;8.10;;;3.67;;
19891;SDS011;10108;50.142;8.724;2023-07-13T07:56:33;7.13;;;3.70;;
19891;SDS011;10108;50.142;8.724;2023-07-13T07:58:59;6.90;;;3.50;;
19891;SDS011;10108;50.142;8.724;2023-07-13T08:01:25;7.22;;;3.67;;
19891;SDS011;10108;50.142;8.724;2023-07-13T08:03:51;5.15;;;3.47;;
19891;SDS011;10108;50.142;8.724;2023-07-13T08:06:17;4.70;;;3.33;;
19891;SDS011;10108;50.142;8.724;2023-07-13T08:08:45;5.80;;;3.67;;
19891;SDS011;10108;50.142;8.724;2023-07-13T08:11:11;4.97;;;3.40;;
19891;SDS011;10108;50.142;8.724;2023-07-13T08:13:38;8.82;;;3.80;;
19891;SDS011;10108;50.142;8.724;2023-07-13T08:16:04;5.65;;;3.55;;
19891;SDS011;10108;50.142;8.724;2023-07-13T08:18:31;5.43;;;3.50;;
19891;SDS011;10108;50.142;8.724;2023-07-13T08:20:57;6.32;;;3.70;;
19891;SDS011;10108;50.142;8.724;2023-07-13T08:23:24;5.78;;;3.50;;
19891;SDS011;10108;50.142;8.724;2023-07-13T08:25:54;7.85;;;3.60;;
19891;SDS011;10108;50.142;8.724;2023-07-13T08:28:21;6.15;;;3.75;;
19891;SDS011;10108;50.142;8.724;2023-07-13T08:30:47;7.75;;;3.60;;
19891;SDS011;10108;50.142;8.724;2023-07-13T08:33:15;6.10;;;3.70;;
19891;SDS011;10108;50.142;8.724;2023-07-13T08:35:48;4.88;;;3.35;;
19891;SDS011;10108;50.142;8.724;2023-07-13T08:38:15;4.03;;;3.30;;
19891;SDS011;10108;50.142;8.724;2023-07-13T08:40:42;6.60;;;3.83;;
19891;SDS011;10108;50.142;8.724;2023-07-13T08:43:12;7.22;;;4.20;;
19891;SDS011;10108;50.142;8.724;2023-07-13T08:45:44;5.68;;;3.80;;
19891;SDS011;10108;50.142;8.724;2023-07-13T08:50:51;4.65;;;3.70;;
19891;SDS011;10108;50.142;8.724;2023-07-13T08:53:24;5.15;;;3.80;;
19891;SDS011;10108;50.142;8.724;2023-07-13T08:56:04;5.95;;;3.60;;
19891;SDS011;10108;50.142;8.724;2023-07-13T08:58:38;5.28;;;3.38;;
19891;SDS011;10108;50.142;8.724;2023-07-13T09:06:40;5.35;;;3.60;;
19891;SDS011;10108;50.142;8.724;2023-07-13T09:12:11;4.38;;;3.42;;
19891;SDS011;10108;50.142;8.724;2023-07-13T09:17:19;6.85;;;3.50;;
19891;SDS011;10108;50.142;8.724;2023-07-13T09:19:53;5.20;;;3.58;;
19891;SDS011;10108;50.142;8.724;2023-07-13T09:22:40;3.72;;;3.28;;
19891;SDS011;10108;50.142;8.724;2023-07-13T09:25:18;6.85;;;3.50;;
19891;SDS011;10108;50.142;8.724;2023-07-13T09:27:57;5.97;;;3.50;;
19891;SDS011;10108;50.142;8.724;2023-07-13T09:33:24;6.85;;;3.33;;
19891;SDS011;10108;50.142;8.724;2023-07-13T09:36:22;4.53;;;3.25;;
19891;SDS011;10108;50.142;8.724;2023-07-13T09:41:51;7.70;;;3.40;;
19891;SDS011;10108;50.142;8.724;2023-07-13T09:44:39;6.97;;;3.47;;
19891;SDS011;10108;50.142;8.724;2023-07-13T09:47:19;4.03;;;3.20;;
19891;SDS011;10108;50.142;8.724;2023-07-13T09:50:05;5.75;;;3.35;;
19891;SDS011;10108;50.142;8.724;2023-07-13T09:52:41;4.72;;;3.30;;
19891;SDS011;10108;50.142;8.724;2023-07-13T09:57:51;6.38;;;3.40;;
19891;SDS011;10108;50.142;8.724;2023-07-13T10:00:20;4.90;;;3.35;;
19891;SDS011;10108;50.142;8.724;2023-07-13T10:05:36;5.82;;;3.67;;
19891;SDS011;10108;50.142;8.724;2023-07-13T10:08:04;4.78;;;3.22;;
19891;SDS011;10108;50.142;8.724;2023-07-13T10:10:32;5.40;;;3.53;;
19891;SDS011;10108;50.142;8.724;2023-07-13T10:13:01;4.43;;;3.45;;
19891;SDS011;10108;50.142;8.724;2023-07-13T10:15:30;4.85;;;3.60;;
19891;SDS011;10108;50.142;8.724;2023-07-13T10:17:58;4.43;;;3.22;;
19891;SDS011;10108;50.142;8.724;2023-07-13T10:20:24;6.30;;;3.60;;
19891;SDS011;10108;50.142;8.724;2023-07-13T10:22:54;3.70;;;3.40;;
19891;SDS011;10108;50.142;8.724;2023-07-13T10:25:39;4.18;;;3.33;;
19891;SDS011;10108;50.142;8.724;2023-07-13T10:31:14;3.63;;;3.10;;
19891;SDS011;10108;50.142;8.724;2023-07-13T10:33:42;6.40;;;3.20;;
19891;SDS011;10108;50.142;8.724;2023-07-13T10:36:16;3.90;;;3.40;;
19891;SDS011;10108;50.142;8.724;2023-07-13T10:38:48;5.47;;;3.60;;
19891;SDS011;10108;50.142;8.724;2023-07-13T10:41:20;3.95;;;3.35;;
19891;SDS011;10108;50.142;8.724;2023-07-13T10:43:51;3.90;;;3.40;;
19891;SDS011;10108;50.142;8.724;2023-07-13T10:46:19;6.65;;;3.78;;
19891;SDS011;10108;50.142;8.724;2023-07-13T10:48:49;5.22;;;3.50;;
19891;SDS011;10108;50.142;8.724;2023-07-13T10:51:18;5.30;;;3.45;;
19891;SDS011;10108;50.142;8.724;2023-07-13T10:53:47;3.58;;;3.25;;
19891;SDS011;10108;50.142;8.724;2023-07-13T10:59:09;5.85;;;3.30;;
19891;SDS011;10108;50.142;8.724;2023-07-13T11:04:39;6.15;;;3.80;;
19891;SDS011;10108;50.142;8.724;2023-07-13T11:07:19;6.00;;;3.80;;
19891;SDS011;10108;50.142;8.724;2023-07-13T11:10:04;6.70;;;3.45;;
19891;SDS011;10108;50.142;8.724;2023-07-13T11:15:29;4.35;;;3.42;;
19891;SDS011;10108;50.142;8.724;2023-07-13T11:18:02;5.47;;;3.60;;
19891;SDS011;10108;50.142;8.724;2023-07-13T11:20:33;7.05;;;3.78;;
19891;SDS011;10108;50.142;8.724;2023-07-13T11:25:39;5.30;;;3.63;;
19891;SDS011;10108;50.142;8.724;2023-07-13T11:30:38;7.25;;;4.00;;
19891;SDS011;10108;50.142;8.724;2023-07-13T11:35:35;5.43;;;3.67;;
19891;SDS011;10108;50.142;8.724;2023-07-13T11:38:09;4.13;;;3.70;;
19891;SDS011;10108;50.142;8.724;2023-07-13T11:40:41;5.57;;;3.70;;
19891;SDS011;10108;50.142;8.724;2023-07-13T11:43:11;4.03;;;3.50;;
19891;SDS011;10108;50.142;8.724;2023-07-13T11:45:43;3.80;;;3.40;;
19891;SDS011;10108;50.142;8.724;2023-07-13T11:48:43;5.60;;;3.70;;
19891;SDS011;10108;50.142;8.724;2023-07-13T11:51:09;6.10;;;3.70;;
19891;SDS011;10108;50.142;8.724;2023-07-13T11:54:01;5.38;;;3.75;;
19891;SDS011;10108;50.142;8.724;2023-07-13T11:56:30;4.68;;;3.60;;
19891;SDS011;10108;50.142;8.724;2023-07-13T11:58:59;5.30;;;3.80;;
19891;SDS011;10108;50.142;8.724;2023-07-13T12:01:30;5.47;;;3.72;;
19891;SDS011;10108;50.142;8.724;2023-07-13T12:06:54;6.18;;;3.70;;
19891;SDS011;10108;50.142;8.724;2023-07-13T12:09:22;7.68;;;3.90;;
19891;SDS011;10108;50.142;8.724;2023-07-13T12:11:51;6.20;;;3.92;;
19891;SDS011;10108;50.142;8.724;2023-07-13T12:14:17;6.15;;;3.55;;
19891;SDS011;10108;50.142;8.724;2023-07-13T12:16:45;5.13;;;3.25;;
19891;SDS011;10108;50.142;8.724;2023-07-13T12:19:17;4.22;;;3.58;;
19891;SDS011;10108;50.142;8.724;2023-07-13T12:21:45;4.25;;;3.60;;
19891;SDS011;10108;50.142;8.724;2023-07-13T12:24:15;4.40;;;3.67;;
19891;SDS011;10108;50.142;8.724;2023-07-13T12:26:42;4.82;;;3.63;;
19891;SDS011;10108;50.142;8.724;2023-07-13T12:29:15;6.50;;;3.80;;
19891;SDS011;10108;50.142;8.724;2023-07-13T12:31:45;7.60;;;4.03;;
19891;SDS011;10108;50.142;8.724;2023-07-13T12:39:43;6.40;;;3.95;;
19891;SDS011;10108;50.142;8.724;2023-07-13T12:44:51;5.70;;;3.72;;
19891;SDS011;10108;50.142;8.724;2023-07-13T12:47:24;4.72;;;3.75;;
19891;SDS011;10108;50.142;8.724;2023-07-13T12:49:54;6.32;;;3.67;;
19891;SDS011;10108;50.142;8.724;2023-07-13T12:52:24;6.43;;;3.70;;
19891;SDS011;10108;50.142;8.724;2023-07-13T12:55:02;5.18;;;3.60;;
19891;SDS011;10108;50.142;8.724;2023-07-13T12:57:38;5.65;;;3.85;;
19891;SDS011;10108;50.142;8.724;2023-07-13T13:00:32;4.95;;;3.53;;
19891;SDS011;10108;50.142;8.724;2023-07-13T13:03:04;8.73;;;3.50;;
19891;SDS011;10108;50.142;8.724;2023-07-13T13:05:44;6.72;;;3.88;;
19891;SDS011;10108;50.142;8.724;2023-07-13T13:08:11;6.82;;;3.80;;
19891;SDS011;10108;50.142;8.724;2023-07-13T13:10:37;6.80;;;3.95;;
19891;SDS011;10108;50.142;8.724;2023-07-13T13:13:03;4.90;;;3.75;;
19891;SDS011;10108;50.142;8.724;2023-07-13T13:15:32;6.63;;;4.10;;
19891;SDS011;10108;50.142;8.724;2023-07-13T13:17:59;7.22;;;4.00;;
19891;SDS011;10108;50.142;8.724;2023-07-13T13:20:25;4.60;;;3.70;;
19891;SDS011;10108;50.142;8.724;2023-07-13T13:22:55;5.78;;;4.00;;
19891;SDS011;10108;50.142;8.724;2023-07-13T13:25:21;5.13;;;3.78;;
19891;SDS011;10108;50.142;8.724;2023-07-13T13:27:51;4.68;;;3.65;;
19891;SDS011;10108;50.142;8.724;2023-07-13T13:30:17;5.03;;;3.60;;
19891;SDS011;10108;50.142;8.724;2023-07-13T13:32:45;8.18;;;4.03;;
19891;SDS011;10108;50.142;8.724;2023-07-13T13:35:13;5.55;;;3.80;;
19891;SDS011;10108;50.142;8.724;2023-07-13T13:37:40;5.50;;;3.63;;
19891;SDS011;10108;50.142;8.724;2023-07-13T13:40:17;5.28;;;3.35;;
19891;SDS011;10108;50.142;8.724;2023-07-13T13:42:45;7.60;;;4.03;;
19891;SDS011;10108;50.142;8.724;2023-07-13T13:45:12;6.88;;;4.00;;
19891;SDS011;10108;50.142;8.724;2023-07-13T13:47:39;4.05;;;3.60;;
19891;SDS011;10108;50.142;8.724;2023-07-13T13:50:16;5.30;;;4.13;;
19891;SDS011;10108;50.142;8.724;2023-07-13T13:52:46;9.27;;;4.13;;
19891;SDS011;10108;50.142;8.724;2023-07-13T13:55:17;5.97;;;4.20;;
19891;SDS011;10108;50.142;8.724;2023-07-13T13:57:45;6.28;;;4.28;;
19891;SDS011;10108;50.142;8.724;2023-07-13T14:00:12;6.47;;;4.03;;
19891;SDS011;10108;50.142;8.724;2023-07-13T14:02:44;5.70;;;4.18;;
19891;SDS011;10108;50.142;8.724;2023-07-13T14:05:24;5.82;;;4.10;;
19891;SDS011;10108;50.142;8.724;2023-07-13T14:07:55;6.68;;;3.88;;
19891;SDS011;10108;50.142;8.724;2023-07-13T14:10:25;4.88;;;3.88;;
19891;SDS011;10108;50.142;8.724;2023-07-13T14:12:54;6.40;;;3.92;;
19891;SDS011;10108;50.142;8.724;2023-07-13T14:15:25;5.18;;;4.20;;
19891;SDS011;10108;50.142;8.724;2023-07-13T14:17:54;7.05;;;4.10;;
19891;SDS011;10108;50.142;8.724;2023-07-13T14:20:21;5.10;;;3.70;;
19891;SDS011;10108;50.142;8.724;2023-07-13T14:22:49;5.40;;;3.60;;
19891;SDS011;10108;50.142;8.724;2023-07-13T14:25:17;5.60;;;3.75;;
19891;SDS011;10108;50.142;8.724;2023-07-13T14:27:44;5.80;;;3.67;;
19891;SDS011;10108;50.142;8.724;2023-07-13T14:30:14;5.35;;;3.80;;
19891;SDS011;10108;50.142;8.724;2023-07-13T14:32:45;8.52;;;4.03;;
19891;SDS011;10108;50.142;8.724;2023-07-13T14:35:12;4.80;;;3.80;;
19891;SDS011;10108;50.142;8.724;2023-07-13T14:37:39;8.65;;;4.40;;
19891;SDS011;10108;50.142;8.724;2023-07-13T14:42:43;4.57;;;3.78;;
19891;SDS011;10108;50.142;8.724;2023-07-13T14:45:13;5.57;;;4.00;;
19891;SDS011;10108;50.142;8.724;2023-07-13T14:47:44;6.35;;;3.88;;
19891;SDS011;10108;50.142;8.724;2023-07-13T14:50:21;7.13;;;3.90;;
19891;SDS011;10108;50.142;8.724;2023-07-13T14:52:52;6.53;;;3.60;;
19891;SDS011;10108;50.142;8.724;2023-07-13T14:55:18;5.15;;;3.75;;
19891;SDS011;10108;50.142;8.724;2023-07-13T14:57:44;6.68;;;3.70;;
19891;SDS011;10108;50.142;8.724;2023-07-13T15:00:18;4.80;;;3.80;;
19891;SDS011;10108;50.142;8.724;2023-07-13T15:02:52;4.65;;;3.78;;
19891;SDS011;10108;50.142;8.724;2023-07-13T15:05:22;6.68;;;4.03;;
19891;SDS011;10108;50.142;8.724;2023-07-13T15:07:51;4.20;;;3.75;;
19891;SDS011;10108;50.142;8.724;2023-07-13T15:10:20;6.05;;;4.03;;
19891;SDS011;10108;50.142;8.724;2023-07-13T15:12:50;5.18;;;3.80;;
19891;SDS011;10108;50.142;8.724;2023-07-13T15:15:17;8.70;;;4.15;;
19891;SDS011;10108;50.142;8.724;2023-07-13T15:17:44;4.80;;;3.85;;
19891;SDS011;10108;50.142;8.724;2023-07-13T15:20:19;6.38;;;4.10;;
19891;SDS011;10108;50.142;8.724;2023-07-13T15:22:51;7.20;;;3.78;;
19891;SDS011;10108;50.142;8.724;2023-07-13T15:25:19;9.27;;;4.05;;
19891;SDS011;10108;50.142;8.724;2023-07-13T15:27:50;6.82;;;3.92;;
19891;SDS011;10108;50.142;8.724;2023-07-13T15:30:17;5.72;;;4.10;;
19891;SDS011;10108;50.142;8.724;2023-07-13T15:32:44;6.45;;;3.80;;
19891;SDS011;10108;50.142;8.724;2023-07-13T15:35:14;4.75;;;4.15;;
19891;SDS011;10108;50.142;8.724;2023-07-13T15:37:42;6.47;;;4.22;;
19891;SDS011;10108;50.142;8.724;2023-07-13T15:40:08;5.50;;;3.90;;
19891;SDS011;10108;50.142;8.724;2023-07-13T15:42:37;4.78;;;3.80;;
19891;SDS011;10108;50.142;8.724;2023-07-13T15:45:22;5.40;;;4.10;;
19891;SDS011;10108;50.142;8.724;2023-07-13T15:47:50;5.53;;;3.67;;
19891;SDS011;10108;50.142;8.724;2023-07-13T15:50:17;6.45;;;4.00;;
19891;SDS011;10108;50.142;8.724;2023-07-13T15:52:50;4.20;;;3.80;;
19891;SDS011;10108;50.142;8.724;2023-07-13T15:55:18;6.10;;;4.20;;
19891;SDS011;10108;50.142;8.724;2023-07-13T15:57:46;4.63;;;3.92;;